Time;durP1;ratioP1;P1;durP2;ratioP2;P2;SDS_P1;SDS_P2;PMS_P1;PMS_P2;Temp;Humidity;BMP_temperature;BMP_pressure;BME280_temperature;BME280_humidity;BME280_pressure;Samples;Min_cycle;Max_cycle;Signal;HPM_P1;HPM_P2
2023/08/29 00:00:47;;;;;;;9.05;6.88;;;;;;;12.26;100.00;101097.19;4902041;29;20103;-89
2023/08/29 00:03:13;;;;;;;8.57;6.67;;;;;;;12.23;100.00;101096.81;4919336;29;20060;-89
2023/08/29 00:05:40;;;;;;;10.02;7.03;;;;;;;12.19;100.00;101093.69;4902774;29;20028;-89
2023/08/29 00:08:08;;;;;;;8.97;7.37;;;;;;;12.15;100.00;101092.47;4903045;29;20081;-90
2023/08/29 00:10:34;;;;;;;9.07;6.47;;;;;;;12.15;100.00;101092.47;4887045;29;20036;-90
2023/08/29 00:12:59;;;;;;;10.77;7.37;;;;;;;12.14;100.00;101092.69;4901906;29;20469;-89
2023/08/29 00:15:25;;;;;;;9.93;6.90;;;;;;;12.11;100.00;101085.81;4902232;29;20032;-89
2023/08/29 00:17:53;;;;;;;8.37;6.87;;;;;;;12.08;100.00;101089.78;4901917;29;20036;-90
2023/08/29 00:20:18;;;;;;;9.63;7.13;;;;;;;12.07;100.00;101084.56;4902090;29;20024;-89
2023/08/29 00:22:44;;;;;;;9.07;6.63;;;;;;;12.05;100.00;101086.69;4902402;29;20358;-90
2023/08/29 00:25:09;;;;;;;9.53;7.27;;;;;;;12.00;100.00;101075.63;4901730;29;20028;-89
2023/08/29 00:27:34;;;;;;;9.32;7.35;;;;;;;11.98;100.00;101072.31;4918611;29;20468;-89
2023/08/29 00:30:00;;;;;;;9.40;6.93;;;;;;;11.94;100.00;101063.72;4901223;29;20413;-89
2023/08/29 00:32:26;;;;;;;10.57;7.00;;;;;;;11.94;100.00;101074.59;4918803;29;20043;-89
2023/08/29 00:34:51;;;;;;;8.40;7.05;;;;;;;11.92;100.00;101074.78;4901475;29;20123;-90
2023/08/29 00:37:19;;;;;;;11.77;7.73;;;;;;;11.91;100.00;101075.00;4918466;29;20063;-89
2023/08/29 00:39:44;;;;;;;10.10;7.38;;;;;;;11.91;100.00;101072.28;4901602;29;20036;-89
2023/08/29 00:42:12;;;;;;;10.27;7.67;;;;;;;11.88;100.00;101073.56;4901613;29;20477;-89
2023/08/29 00:44:38;;;;;;;9.63;7.38;;;;;;;11.87;100.00;101068.34;4918783;29;20032;-89
2023/08/29 00:47:07;;;;;;;10.60;8.03;;;;;;;11.87;100.00;101076.50;4901446;29;20492;-89
2023/08/29 00:49:33;;;;;;;14.00;9.27;;;;;;;11.85;100.00;101070.44;4901498;29;20067;-89
2023/08/29 00:52:05;;;;;;;9.40;7.37;;;;;;;11.80;100.00;101064.84;4901176;29;20032;-89
2023/08/29 00:54:31;;;;;;;12.43;7.77;;;;;;;11.76;100.00;101072.59;4901445;29;20363;-89
2023/08/29 00:56:59;;;;;;;11.48;8.00;;;;;;;11.75;100.00;101068.19;4901280;29;20123;-89
2023/08/29 00:59:25;;;;;;;11.50;7.15;;;;;;;11.74;100.00;101072.00;4901105;29;20490;-89
2023/08/29 01:01:50;;;;;;;10.17;7.70;;;;;;;11.68;100.00;101073.69;4885483;29;20036;-89
2023/08/29 01:04:18;;;;;;;11.85;7.60;;;;;;;11.68;100.00;101062.81;4918591;29;20096;-89
2023/08/29 01:06:44;;;;;;;11.23;7.63;;;;;;;11.67;100.00;101063.84;4901164;29;20064;-89
2023/08/29 01:09:17;;;;;;;11.45;7.03;;;;;;;11.67;100.00;101063.03;4885674;29;20107;-89
2023/08/29 01:11:50;;;;;;;13.48;6.97;;;;;;;11.67;100.00;101061.13;4901449;29;20039;-89
2023/08/29 01:14:26;;;;;;;10.97;7.37;;;;;;;11.64;100.00;101055.31;4901372;29;20036;-90
2023/08/29 01:16:59;;;;;;;10.38;7.20;;;;;;;11.58;100.00;101062.44;4901477;29;20500;-89
2023/08/29 01:19:28;;;;;;;10.43;6.93;;;;;;;11.59;100.00;101064.13;4917964;29;20035;-89
2023/08/29 01:22:03;;;;;;;9.75;7.50;;;;;;;11.55;100.00;101071.03;4900734;29;20032;-89
2023/08/29 01:24:52;;;;;;;9.73;7.45;;;;;;;11.54;100.00;101069.38;4900509;29;20043;-90
2023/08/29 01:27:19;;;;;;;9.93;7.53;;;;;;;11.52;100.00;101069.59;4917958;29;20156;-89
2023/08/29 01:29:48;;;;;;;11.93;8.00;;;;;;;11.52;100.00;101072.31;4901303;29;20040;-90
2023/08/29 01:32:15;;;;;;;13.65;8.10;;;;;;;11.48;100.00;101073.78;4917782;29;20028;-89
2023/08/29 01:34:43;;;;;;;11.55;7.82;;;;;;;11.47;100.00;101063.13;4917937;29;20024;-89
2023/08/29 01:37:09;;;;;;;12.10;7.85;;;;;;;11.47;100.00;101065.84;4900729;29;20036;-89
2023/08/29 01:39:34;;;;;;;13.40;7.63;;;;;;;11.46;100.00;101064.19;4917919;29;20123;-89
2023/08/29 01:42:01;;;;;;;10.00;7.63;;;;;;;11.45;100.00;101070.66;4884043;29;20040;-89
2023/08/29 01:44:30;;;;;;;9.52;7.22;;;;;;;11.37;100.00;101069.84;4900353;29;20036;-89
2023/08/29 01:46:58;;;;;;;12.70;7.53;;;;;;;11.35;100.00;101069.25;4900387;29;20032;-89
2023/08/29 01:49:24;;;;;;;12.00;7.70;;;;;;;11.35;100.00;101073.84;4900558;29;20032;-90
2023/08/29 01:51:50;;;;;;;12.15;8.13;;;;;;;11.31;100.00;101078.88;4900562;29;20084;-89
2023/08/29 01:54:16;;;;;;;12.97;7.83;;;;;;;11.28;100.00;101068.44;4901013;29;20393;-89
2023/08/29 01:56:45;;;;;;;11.67;7.60;;;;;;;11.26;100.00;101078.66;4917523;29;20447;-90
2023/08/29 01:59:10;;;;;;;14.68;8.35;;;;;;;11.26;100.00;101080.56;4917416;29;20040;-89
2023/08/29 02:01:41;;;;;;;13.68;7.80;;;;;;;11.27;100.00;101076.81;4900456;29;20536;-89
2023/08/29 02:04:16;;;;;;;12.47;8.17;;;;;;;11.23;100.00;101081.81;4900061;29;20504;-89
2023/08/29 02:06:44;;;;;;;13.02;7.90;;;;;;;11.22;100.00;101083.72;4901185;29;20054;-89
2023/08/29 02:09:12;;;;;;;11.23;7.95;;;;;;;11.20;100.00;101085.78;4917294;29;20040;-89
2023/08/29 02:11:37;;;;;;;13.77;8.23;;;;;;;11.18;100.00;101082.47;4885088;29;20040;-89
2023/08/29 02:14:03;;;;;;;11.17;7.90;;;;;;;11.21;100.00;101086.63;4900609;29;20096;-89
2023/08/29 02:16:31;;;;;;;12.37;8.30;;;;;;;11.22;100.00;101082.88;4884664;29;20040;-89
2023/08/29 02:18:59;;;;;;;12.07;7.35;;;;;;;11.19;100.00;101075.13;4900366;29;20056;-89
2023/08/29 02:21:26;;;;;;;11.20;7.78;;;;;;;11.16;100.00;101089.16;4900257;29;20063;-89
2023/08/29 02:23:53;;;;;;;13.23;7.78;;;;;;;11.14;100.00;101097.50;4900504;29;20040;-89
2023/08/29 02:26:21;;;;;;;13.73;8.00;;;;;;;11.14;100.00;101104.81;4917763;29;20024;-89
2023/08/29 02:28:51;;;;;;;13.27;8.10;;;;;;;11.11;100.00;101094.41;4900400;29;20035;-89
2023/08/29 02:31:20;;;;;;;13.55;8.85;;;;;;;11.11;100.00;101106.09;4917335;29;20492;-89
2023/08/29 02:33:46;;;;;;;14.80;8.25;;;;;;;11.08;100.00;101094.81;4899958;29;20141;-89
2023/08/29 02:36:14;;;;;;;13.47;8.53;;;;;;;11.10;100.00;101109.88;4900103;29;20092;-89
2023/08/29 02:38:40;;;;;;;13.05;8.27;;;;;;;11.11;100.00;101111.50;4900174;29;20084;-90
2023/08/29 02:41:06;;;;;;;11.77;7.78;;;;;;;11.11;100.00;101116.94;4900076;29;20083;-89
2023/08/29 02:43:32;;;;;;;11.03;7.17;;;;;;;11.06;100.00;101122.19;4899825;29;20384;-89
2023/08/29 02:45:58;;;;;;;12.77;8.45;;;;;;;11.01;100.00;101125.53;4899779;29;20124;-89
2023/08/29 02:48:24;;;;;;;13.60;8.65;;;;;;;11.00;100.00;101125.75;4900404;29;20063;-89
2023/08/29 02:51:00;;;;;;;14.27;8.30;;;;;;;11.02;100.00;101129.91;4917210;29;20469;-89
2023/08/29 02:53:25;;;;;;;13.18;8.27;;;;;;;11.00;100.00;101121.16;4902799;29;20445;-90
2023/08/29 02:55:52;;;;;;;13.10;8.43;;;;;;;11.01;100.00;101121.97;4903582;29;20115;-89
2023/08/29 02:58:18;;;;;;;13.05;7.78;;;;;;;10.96;100.00;101109.03;4903566;29;20028;-89
2023/08/29 03:00:53;;;;;;;11.85;7.70;;;;;;;10.94;100.00;101113.84;4920523;29;20449;-89
2023/08/29 03:03:18;;;;;;;13.45;7.47;;;;;;;10.92;100.00;101115.94;4903373;29;20438;-89
2023/08/29 03:05:53;;;;;;;12.77;7.70;;;;;;;10.91;100.00;101121.56;4903584;29;20028;-89
2023/08/29 03:08:21;;;;;;;12.85;7.15;;;;;;;10.90;100.00;101126.19;4888445;29;20043;-89
2023/08/29 03:10:47;;;;;;;12.73;7.45;;;;;;;10.84;100.00;101121.59;4902967;29;20032;-89
2023/08/29 03:13:12;;;;;;;12.20;7.33;;;;;;;10.79;100.00;101121.38;4902683;29;20038;-89
2023/08/29 03:15:40;;;;;;;11.10;7.27;;;;;;;10.78;100.00;101119.72;4903214;29;20032;-89
2023/08/29 03:18:08;;;;;;;10.27;7.18;;;;;;;10.77;100.00;101121.59;4920409;29;20031;-89
2023/08/29 03:20:33;;;;;;;10.30;7.40;;;;;;;10.73;100.00;101120.34;4887486;29;20040;-89
2023/08/29 03:22:59;;;;;;;11.53;6.83;;;;;;;10.78;100.00;101125.16;4887709;29;20484;-89
2023/08/29 03:25:24;;;;;;;10.17;7.27;;;;;;;10.76;100.00;101121.81;4887420;29;20293;-90
2023/08/29 03:27:52;;;;;;;12.47;7.80;;;;;;;10.76;100.00;101119.91;4886909;29;20036;-89
2023/08/29 03:30:18;;;;;;;12.27;7.30;;;;;;;10.77;100.00;101118.06;4903730;29;20040;-89
2023/08/29 03:32:43;;;;;;;14.17;7.50;;;;;;;10.75;100.00;101112.84;4919590;29;20029;-93
2023/08/29 03:35:11;;;;;;;11.68;8.00;;;;;;;10.75;100.00;101112.84;4903337;29;20426;-90
2023/08/29 03:37:42;;;;;;;11.38;7.28;;;;;;;10.74;100.00;101111.16;4887223;29;20075;-89
2023/08/29 03:40:08;;;;;;;11.33;7.50;;;;;;;10.79;100.00;101105.09;4903055;29;20043;-89
2023/08/29 03:42:36;;;;;;;10.93;7.53;;;;;;;10.81;100.00;101098.41;4903318;29;20024;-89
2023/08/29 03:45:03;;;;;;;10.13;7.50;;;;;;;10.82;100.00;101102.81;4902370;29;20055;-89
2023/08/29 03:47:28;;;;;;;14.50;7.20;;;;;;;10.83;100.00;101100.91;4903454;29;20449;-89
2023/08/29 03:49:54;;;;;;;10.40;7.40;;;;;;;10.81;100.00;101090.28;4886965;29;20036;-89
2023/08/29 03:52:26;;;;;;;10.52;7.25;;;;;;;10.79;100.00;101086.09;4902270;29;20036;-89
2023/08/29 03:54:53;;;;;;;11.50;7.07;;;;;;;10.76;100.00;101073.78;4919310;29;20028;-89
2023/08/29 03:57:19;;;;;;;16.40;8.10;;;;;;;10.75;100.00;101080.25;4902458;29;20047;-89
2023/08/29 03:59:49;;;;;;;10.38;6.72;;;;;;;10.73;100.00;101071.47;4902105;29;20036;-89
2023/08/29 04:02:14;;;;;;;10.00;6.90;;;;;;;10.72;100.00;101075.25;4902296;29;20062;-89
2023/08/29 04:04:43;;;;;;;10.80;7.13;;;;;;;10.72;100.00;101077.97;4901551;29;20062;-89
2023/08/29 04:07:12;;;;;;;12.55;7.45;;;;;;;10.74;100.00;101072.34;4919271;29;20035;-89
2023/08/29 04:09:38;;;;;;;12.40;7.68;;;;;;;10.74;100.00;101081.31;4901927;29;20040;-89
2023/08/29 04:12:11;;;;;;;11.70;7.83;;;;;;;10.72;100.00;101080.69;4918933;29;20036;-89
2023/08/29 04:14:36;;;;;;;12.20;8.15;;;;;;;10.69;100.00;101070.25;4903012;29;20355;-89
2023/08/29 04:17:03;;;;;;;12.53;7.97;;;;;;;10.65;100.00;101067.13;4902069;29;20461;-89
2023/08/29 04:19:52;;;;;;;14.93;8.38;;;;;;;10.61;100.00;101067.75;4919322;29;20043;-89
2023/08/29 04:22:20;;;;;;;14.25;8.02;;;;;;;10.57;100.00;101061.06;4919277;29;20118;-89
2023/08/29 04:24:48;;;;;;;11.43;7.45;;;;;;;10.53;100.00;101075.06;4918476;29;20374;-90
2023/08/29 04:27:14;;;;;;;10.43;7.40;;;;;;;10.51;100.00;101068.16;4902421;29;20537;-89
2023/08/29 04:29:41;;;;;;;11.32;7.88;;;;;;;10.49;100.00;101054.81;4901583;29;20119;-90
2023/08/29 04:32:07;;;;;;;11.53;7.90;;;;;;;10.50;100.00;101061.09;4902095;29;20062;-89
2023/08/29 04:34:32;;;;;;;10.30;7.03;;;;;;;10.46;100.00;101060.66;4902144;29;20536;-89
2023/08/29 04:36:58;;;;;;;10.33;7.70;;;;;;;10.44;100.00;101059.22;4901472;29;20035;-89
2023/08/29 04:39:24;;;;;;;11.80;7.47;;;;;;;10.42;100.00;101066.72;4918960;29;20484;-90
2023/08/29 04:41:50;;;;;;;12.10;7.33;;;;;;;10.38;100.00;101058.19;4918489;29;20036;-89
2023/08/29 04:44:18;;;;;;;14.60;7.22;;;;;;;10.38;100.00;101054.59;4918714;29;20028;-89
2023/08/29 04:46:44;;;;;;;17.00;7.63;;;;;;;10.38;100.00;101054.59;4901225;29;20060;-89
2023/08/29 04:49:12;;;;;;;14.40;7.67;;;;;;;10.35;100.00;101045.84;4918542;29;20062;-89
2023/08/29 04:51:37;;;;;;;11.63;7.38;;;;;;;10.36;100.00;101052.09;4885543;29;20095;-89
2023/08/29 04:54:05;;;;;;;16.13;7.80;;;;;;;10.35;100.00;101050.47;4901310;29;20028;-90
2023/08/29 04:56:30;;;;;;;18.15;8.27;;;;;;;10.35;100.00;101059.41;4901579;29;20042;-89
2023/08/29 04:58:56;;;;;;;17.00;7.97;;;;;;;10.39;100.00;101057.09;4901525;29;20040;-89
2023/08/29 05:01:28;;;;;;;17.25;8.77;;;;;;;10.43;100.00;101062.97;4901661;29;20040;-89
2023/08/29 05:03:53;;;;;;;22.33;9.20;;;;;;;10.46;100.00;101051.69;4885560;29;20060;-89
2023/08/29 05:06:24;;;;;;;15.07;8.97;;;;;;;10.49;100.00;101060.25;4901966;29;20051;-89
2023/08/29 05:08:59;;;;;;;17.10;9.18;;;;;;;10.56;100.00;101049.38;4918431;29;20110;-89
2023/08/29 05:11:30;;;;;;;21.13;9.23;;;;;;;10.61;100.00;101057.72;4870423;29;20103;-89
2023/08/29 05:13:55;;;;;;;24.80;9.65;;;;;;;10.65;100.00;101052.72;4901197;29;20036;-89
2023/08/29 05:16:21;;;;;;;28.08;10.20;;;;;;;10.67;100.00;101056.91;4900688;29;20040;-89
2023/08/29 05:18:51;;;;;;;19.50;9.63;;;;;;;10.74;100.00;101064.19;4885432;29;20028;-89
2023/08/29 05:21:19;;;;;;;23.77;9.32;;;;;;;10.77;100.00;101056.44;4900863;29;20036;-89
2023/08/29 05:23:47;;;;;;;19.00;9.02;;;;;;;10.86;100.00;101057.88;4917894;29;20044;-89
2023/08/29 05:26:15;;;;;;;20.87;9.30;;;;;;;10.91;100.00;101045.56;4884981;29;20540;-90
2023/08/29 05:28:41;;;;;;;13.85;8.82;;;;;;;10.98;100.00;101049.91;4885380;29;20043;-85
2023/08/29 05:31:06;;;;;;;17.10;9.40;;;;;;;11.06;100.00;101044.28;4900980;29;20043;-85
2023/08/29 05:33:32;;;;;;;18.00;9.23;;;;;;;11.14;100.00;101051.34;4900523;29;20037;-85
2023/08/29 05:35:57;;;;;;;15.97;8.93;;;;;;;11.18;100.00;101057.19;4885343;29;20048;-85
2023/08/29 05:38:25;;;;;;;15.00;8.83;;;;;;;11.23;100.00;101065.53;4917656;29;20036;-85
2023/08/29 05:40:54;;;;;;;16.27;7.95;;;;;;;11.28;100.00;101060.28;4901163;29;20039;-84
2023/08/29 05:43:19;;;;;;;15.55;8.48;;;;;;;11.34;100.00;101055.88;4917561;29;20035;-83
2023/08/29 05:45:45;;;;;;;12.18;8.23;;;;;;;11.42;100.00;101055.63;4917178;29;20461;-83
2023/08/29 05:48:10;;;;;;;13.73;9.13;;;;;;;11.50;100.00;101051.81;4917702;29;20068;-83
2023/08/29 05:50:40;;;;;;;12.73;8.40;;;;;;;11.61;100.00;101063.91;4900524;29;20036;-83
2023/08/29 05:53:05;;;;;;;15.70;8.25;;;;;;;11.70;100.00;101063.41;4901230;29;20028;-83
2023/08/29 05:55:31;;;;;;;14.60;8.37;;;;;;;11.74;100.00;101056.50;4900249;29;20035;-83
2023/08/29 05:57:56;;;;;;;11.82;8.15;;;;;;;11.83;100.00;101067.97;4917451;29;20532;-83
2023/08/29 06:00:21;;;;;;;13.50;8.40;;;;;;;11.91;100.00;101067.72;4900136;29;20040;-83
2023/08/29 06:02:47;;;;;;;12.20;8.43;;;;;;;11.98;100.00;101069.56;4917596;29;20552;-86
2023/08/29 06:05:13;;;;;;;10.98;8.00;;;;;;;12.03;100.00;101065.16;4884752;29;20035;-84
2023/08/29 06:07:38;;;;;;;12.97;8.93;;;;;;;12.14;100.00;101066.31;4900314;29;20028;-83
2023/08/29 06:10:06;;;;;;;11.93;8.07;;;;;;;12.27;100.00;101066.22;4884750;29;20032;-83
2023/08/29 06:12:31;;;;;;;11.40;8.63;;;;;;;12.39;100.00;101057.34;4884261;29;20504;-84
2023/08/29 06:14:57;;;;;;;13.00;8.90;;;;;;;12.50;100.00;101055.78;4900210;29;20036;-83
2023/08/29 06:17:22;;;;;;;14.68;8.80;;;;;;;12.60;100.00;101056.94;4900228;29;20051;-83
2023/08/29 06:19:47;;;;;;;16.70;8.83;;;;;;;12.74;100.00;101062.25;4916509;29;20119;-83
2023/08/29 06:22:13;;;;;;;15.50;8.60;;;;;;;12.85;100.00;101057.97;4916837;29;20028;-83
2023/08/29 06:24:38;;;;;;;13.90;9.10;;;;;;;12.94;100.00;101056.59;4916530;29;20075;-83
2023/08/29 06:27:04;;;;;;;14.37;8.93;;;;;;;13.04;100.00;101059.63;4917220;29;20461;-83
2023/08/29 06:29:30;;;;;;;14.00;9.77;;;;;;;13.16;100.00;101060.53;4904082;29;20051;-83
2023/08/29 06:31:56;;;;;;;13.15;8.63;;;;;;;13.26;100.00;101064.63;4921047;29;20029;-83
2023/08/29 06:34:21;;;;;;;16.97;8.77;;;;;;;13.38;100.00;101062.81;4920720;29;20111;-83
2023/08/29 06:36:46;;;;;;;13.77;9.23;;;;;;;13.50;100.00;101062.88;4920687;29;20397;-83
2023/08/29 06:39:13;;;;;;;14.17;9.33;;;;;;;13.65;100.00;101063.31;4903589;29;20032;-83
2023/08/29 06:41:38;;;;;;;12.40;8.73;;;;;;;13.78;100.00;101059.56;4887961;29;20036;-83
2023/08/29 06:44:07;;;;;;;12.13;9.23;;;;;;;13.93;100.00;101056.41;4903606;29;20465;-83
2023/08/29 06:46:32;;;;;;;12.95;8.48;;;;;;;14.10;100.00;101053.00;4904129;29;20040;-84
2023/08/29 06:48:58;;;;;;;14.63;8.53;;;;;;;14.26;100.00;101055.09;4888309;29;20143;-83
2023/08/29 06:51:24;;;;;;;10.75;7.75;;;;;;;14.39;100.00;101052.13;4888286;29;20507;-83
2023/08/29 06:53:49;;;;;;;11.27;8.33;;;;;;;14.51;100.00;101051.28;4920698;29;20393;-83
2023/08/29 06:56:14;;;;;;;14.30;8.07;;;;;;;14.55;100.00;101061.50;4887621;29;20123;-83
2023/08/29 06:58:40;;;;;;;10.70;8.10;;;;;;;14.69;100.00;101061.28;4903678;29;20036;-83
2023/08/29 07:01:05;;;;;;;11.57;8.27;;;;;;;14.84;100.00;101060.84;4903256;29;20477;-83
2023/08/29 07:03:31;;;;;;;9.07;7.33;;;;;;;14.96;100.00;101058.09;4920048;29;20052;-83
2023/08/29 07:05:56;;;;;;;10.05;7.55;;;;;;;15.03;100.00;101067.00;4903341;29;20532;-83
2023/08/29 07:08:22;;;;;;;11.73;7.80;;;;;;;15.08;100.00;101069.81;4920154;29;20024;-83
2023/08/29 07:10:48;;;;;;;10.47;8.23;;;;;;;15.13;100.00;101069.91;4919714;29;20064;-83
2023/08/29 07:13:13;;;;;;;10.02;7.50;;;;;;;15.18;100.00;101072.78;4903209;29;20084;-83
2023/08/29 07:15:39;;;;;;;15.10;7.30;;;;;;;15.19;100.00;101071.72;4903006;29;20091;-83
2023/08/29 07:18:05;;;;;;;10.47;7.67;;;;;;;15.23;100.00;101069.31;4919719;29;20044;-83
2023/08/29 07:20:31;;;;;;;12.05;7.05;;;;;;;15.25;100.00;101065.28;4903749;29;20123;-91
2023/08/29 07:23:01;;;;;;;9.45;8.05;;;;;;;15.23;100.00;101074.78;4903823;29;20036;-92
2023/08/29 07:25:48;;;;;;;13.13;8.80;;;;;;;15.19;100.00;101068.13;4904880;29;20063;-92
2023/08/29 07:28:16;;;;;;;12.45;8.70;;;;;;;15.21;100.00;101074.19;4904435;29;20032;-92
2023/08/29 07:30:51;;;;;;;15.80;8.27;;;;;;;15.25;100.00;101067.16;4888605;29;20036;-92
2023/08/29 07:33:23;;;;;;;12.52;8.02;;;;;;;15.34;100.00;101065.72;4904413;29;20429;-92
2023/08/29 07:35:48;;;;;;;10.05;7.38;;;;;;;15.53;100.00;101062.81;4920705;29;20511;-93
2023/08/29 07:38:16;;;;;;;12.70;7.87;;;;;;;15.65;100.00;101066.34;4903155;29;20056;-92
2023/08/29 07:40:51;;;;;;;8.27;7.27;;;;;;;15.88;100.00;101068.16;4920504;29;20721;-93
2023/08/29 07:43:17;;;;;;;8.07;6.70;;;;;;;16.06;100.00;101066.28;4888954;29;20036;-93
2023/08/29 07:45:46;;;;;;;7.35;6.13;;;;;;;16.18;100.00;101072.53;4903418;29;20060;-92
2023/08/29 07:48:12;;;;;;;7.75;6.32;;;;;;;16.35;100.00;101074.44;4903373;29;20032;-92
2023/08/29 07:50:40;;;;;;;9.20;6.73;;;;;;;16.51;100.00;101073.63;4903230;29;20525;-92
2023/08/29 07:53:08;;;;;;;8.93;6.20;;;;;;;16.64;100.00;101070.53;4904080;29;20060;-93
2023/08/29 07:55:34;;;;;;;8.68;6.35;;;;;;;16.77;100.00;101074.00;4903920;29;20088;-93
2023/08/29 07:58:01;;;;;;;7.60;6.30;;;;;;;16.84;100.00;101072.75;4905861;29;20040;-93
2023/08/29 08:00:28;;;;;;;8.60;6.20;;;;;;;16.93;100.00;101067.72;4908615;29;20087;-92
2023/08/29 08:02:53;;;;;;;10.70;6.05;;;;;;;17.11;100.00;101069.31;4893202;29;20028;-93
2023/08/29 08:05:22;;;;;;;8.60;5.93;;;;;;;17.28;100.00;101072.00;4894371;29;20382;-93
2023/08/29 08:07:49;;;;;;;7.65;6.15;;;;;;;17.36;100.00;101066.06;4910062;29;20127;-93
2023/08/29 08:10:17;;;;;;;12.27;6.10;;;;;;;17.51;100.00;101072.84;4915426;29;20068;-93
2023/08/29 08:12:47;;;;;;;7.97;6.18;;;;;;;17.58;100.00;101069.88;4916450;29;20040;-93
2023/08/29 08:15:20;;;;;;;9.60;6.45;;;;;;;17.70;100.00;101073.28;4916363;29;20028;-93
2023/08/29 08:17:48;;;;;;;10.67;6.67;;;;;;;17.80;100.00;101070.66;4917112;29;20125;-93
2023/08/29 08:20:16;;;;;;;8.77;5.25;;;;;;;17.80;100.00;101069.84;4901037;29;20039;-93
2023/08/29 08:22:44;;;;;;;8.10;5.43;;;;;;;17.73;100.00;101074.69;4915373;29;20084;-93
2023/08/29 08:25:13;;;;;;;7.07;4.88;;;;;;;17.80;100.00;101067.91;4912253;29;20031;-93
2023/08/29 08:27:48;;;;;;;7.68;5.80;;;;;;;17.99;100.00;101070.34;4905126;29;20032;-93
2023/08/29 08:30:19;;;;;;;9.63;5.63;;;;;;;18.06;100.00;101069.03;4889940;29;20040;-93
2023/08/29 08:32:44;;;;;;;6.32;5.25;;;;;;;18.26;100.00;101066.72;4873429;29;20036;-92
2023/08/29 08:35:10;;;;;;;8.20;5.40;;;;;;;18.43;100.00;101061.13;4903110;29;20034;-93
2023/08/29 08:37:36;;;;;;;8.57;5.00;;;;;;;18.68;100.00;101066.78;4888155;29;20462;-93
2023/08/29 08:40:09;;;;;;;5.53;4.95;;;;;;;18.97;100.00;101065.59;4903001;29;20079;-92
2023/08/29 08:42:44;;;;;;;6.22;5.30;;;;;;;19.23;100.00;101072.06;4903616;29;20024;-93
2023/08/29 08:45:13;;;;;;;10.45;3.35;;;;;;;19.21;97.04;101066.84;4902654;29;20035;-93
2023/08/29 08:47:41;;;;;;;6.73;3.50;;;;;;;19.07;95.35;101073.91;4902454;29;20127;-93
2023/08/29 08:50:10;;;;;;;3.78;3.03;;;;;;;19.04;97.23;101068.94;4886803;29;20036;-93
2023/08/29 08:52:46;;;;;;;5.90;2.80;;;;;;;19.31;95.47;101066.06;4903414;29;20129;-93
2023/08/29 08:55:12;;;;;;;4.07;3.00;;;;;;;19.72;95.52;101065.34;4902814;29;20537;-94
2023/08/29 08:57:50;;;;;;;3.30;2.60;;;;;;;19.79;93.61;101064.03;4902419;29;20032;-93
2023/08/29 09:00:16;;;;;;;3.60;2.72;;;;;;;19.93;92.08;101067.09;4902247;29;20039;-94
2023/08/29 09:02:53;;;;;;;4.25;2.97;;;;;;;19.76;91.60;101066.47;4902585;29;20032;-93
2023/08/29 09:05:29;;;;;;;;;;;;;;;;;;;;;
2023/08/29 09:07:57;;;;;;;7.22;2.53;;;;;;;19.46;88.58;101059.78;4919874;29;20380;-93
2023/08/29 09:10:23;;;;;;;4.05;2.67;;;;;;;19.36;88.76;101059.75;4902612;29;20062;-93
2023/08/29 09:12:56;;;;;;;4.72;2.15;;;;;;;19.23;88.61;101066.56;4902038;29;20477;-93
2023/08/29 09:15:22;;;;;;;4.90;3.13;;;;;;;19.25;89.67;101062.47;4902554;29;20028;-93
2023/08/29 09:17:54;;;;;;;3.75;3.20;;;;;;;19.11;91.39;101066.78;4902045;29;20028;-93
2023/08/29 09:20:33;;;;;;;6.55;3.08;;;;;;;19.26;92.03;101066.03;4901730;29;20032;-93
2023/08/29 09:23:21;;;;;;;4.63;3.25;;;;;;;19.32;91.83;101070.44;4901941;29;20039;-94
2023/08/29 09:26:10;;;;;;;5.82;3.00;;;;;;;19.72;91.97;101068.91;4902337;29;20483;-93
2023/08/29 09:28:35;;;;;;;2.90;2.60;;;;;;;19.79;89.25;101071.47;4918785;29;20040;-93
2023/08/29 09:31:14;;;;;;;4.85;2.90;;;;;;;19.96;90.11;101080.31;4902336;29;20028;-94
2023/08/29 09:33:42;;;;;;;3.78;2.20;;;;;;;20.15;85.85;101072.34;4901889;29;20052;-93
2023/08/29 09:36:07;;;;;;;3.60;2.03;;;;;;;20.26;83.94;101073.16;4901557;29;20462;-93
2023/08/29 09:38:49;;;;;;;5.50;1.80;;;;;;;20.36;82.83;101071.50;4902500;29;20463;-94
2023/08/29 09:41:17;;;;;;;2.22;1.80;;;;;;;20.66;82.64;101076.22;4902916;29;20525;-93
2023/08/29 09:43:50;;;;;;;5.77;2.30;;;;;;;20.58;82.19;101068.47;4902123;29;20441;-93
2023/08/29 09:46:37;;;;;;;4.22;2.22;;;;;;;20.78;84.00;101065.69;4901365;29;20031;-93
2023/08/29 09:49:08;;;;;;;3.00;2.00;;;;;;;21.01;80.88;101067.03;4902442;29;20143;-93
2023/08/29 09:51:37;;;;;;;4.47;2.30;;;;;;;21.18;78.28;101065.88;4901720;29;20036;-93
2023/08/29 09:54:08;;;;;;;3.22;2.10;;;;;;;21.20;79.05;101058.97;4902415;29;20059;-94
2023/08/29 09:56:37;;;;;;;4.70;2.23;;;;;;;21.25;78.72;101051.78;4901358;29;20032;-94
2023/08/29 10:00:01;;;;;;;3.53;2.30;;;;;;;21.32;81.38;101055.06;4900993;29;20032;-96
2023/08/29 10:02:28;;;;;;;4.28;2.00;;;;;;;21.67;76.57;101054.09;4915361;29;20040;-94
2023/08/29 10:05:04;;;;;;;3.13;2.30;;;;;;;22.05;73.94;101048.03;4900641;29;20059;-94
2023/08/29 10:07:39;;;;;;;3.33;2.28;;;;;;;22.26;73.39;101054.19;4902723;29;20044;-93
2023/08/29 10:10:07;;;;;;;5.23;2.63;;;;;;;22.70;71.69;101046.94;4901500;29;20111;-93
2023/08/29 10:12:33;;;;;;;5.38;2.72;;;;;;;22.83;69.98;101048.19;4901675;29;20035;-92
2023/08/29 10:15:02;;;;;;;4.25;2.25;;;;;;;22.52;69.84;101045.72;4904168;29;20072;-93
2023/08/29 10:17:39;;;;;;;5.22;2.28;;;;;;;22.36;71.28;101053.34;4902835;29;20068;-93
2023/08/29 10:20:24;;;;;;;3.50;2.33;;;;;;;22.44;70.20;101044.44;4901222;29;20082;-93
2023/08/29 10:22:54;;;;;;;5.43;2.57;;;;;;;22.71;69.97;101038.34;4901789;29;20028;-92
2023/08/29 10:25:30;;;;;;;2.88;2.58;;;;;;;23.00;70.94;101043.00;4901164;29;20054;-93
2023/08/29 10:27:56;;;;;;;4.50;2.65;;;;;;;23.16;68.06;101043.66;4903704;29;20126;-93
2023/08/29 10:30:28;;;;;;;2.47;1.97;;;;;;;22.72;67.97;101041.91;4904469;29;20036;-93
2023/08/29 10:32:58;;;;;;;3.97;2.20;;;;;;;22.77;68.83;101039.09;4903263;29;20032;-93
2023/08/29 10:35:24;;;;;;;3.30;1.98;;;;;;;23.01;67.45;101027.22;4888115;29;20043;-93
2023/08/29 10:38:12;;;;;;;3.08;2.10;;;;;;;23.08;67.55;101022.97;4887633;29;20032;-93
2023/08/29 10:40:46;;;;;;;5.97;2.00;;;;;;;23.08;67.35;101027.69;4901246;29;20028;-93
2023/08/29 10:43:44;;;;;;;2.78;1.92;;;;;;;23.35;68.38;101029.84;4902031;29;20032;-95
2023/08/29 10:46:12;;;;;;;3.90;2.10;;;;;;;23.73;66.28;101029.88;4902447;29;20039;-94
2023/08/29 10:48:58;;;;;;;2.20;1.75;;;;;;;24.05;65.46;101024.69;4901094;29;20039;-93
2023/08/29 10:51:26;;;;;;;3.17;2.00;;;;;;;24.35;62.50;101020.59;4901652;29;20035;-94
2023/08/29 10:54:08;;;;;;;3.83;1.60;;;;;;;24.71;63.30;101021.91;4901677;29;20044;-94
2023/08/29 10:56:43;;;;;;;3.00;1.70;;;;;;;24.50;62.09;101005.63;4903769;29;20485;-94
2023/08/29 10:59:41;;;;;;;3.45;1.38;;;;;;;24.79;62.94;101013.69;4901125;29;20063;-93
2023/08/29 11:02:32;;;;;;;2.30;1.30;;;;;;;25.60;61.67;101011.44;4901284;29;20043;-94
2023/08/29 11:05:32;;;;;;;2.95;1.30;;;;;;;26.38;58.61;101011.22;4885530;29;20131;-94
2023/08/29 11:08:24;;;;;;;3.00;1.20;;;;;;;26.94;56.52;101006.09;4900611;29;20040;-94
2023/08/29 11:14:12;;;;;;;1.98;1.50;;;;;;;26.86;51.61;101012.47;4919875;29;20096;-94
2023/08/29 11:17:22;;;;;;;2.67;1.80;;;;;;;26.96;55.25;100995.47;4904973;29;20100;-94
2023/08/29 11:19:55;;;;;;;3.67;1.60;;;;;;;27.09;49.79;100999.25;4905028;29;20074;-94
2023/08/29 11:22:29;;;;;;;2.03;1.20;;;;;;;27.76;50.01;100986.88;4904818;29;20032;-94
2023/08/29 11:24:55;;;;;;;4.28;1.30;;;;;;;30.47;44.83;100986.47;4903749;29;20036;-94
2023/08/29 11:27:37;;;;;;;3.53;1.63;;;;;;;32.55;39.96;100989.03;4903981;29;20127;-94